Terminal Aerodrome Forecast
Issued by NWS

Home | Current Version | Previous Version | Text Only | Print | Product List | Glossary On
Versions: 1 2 3 4 5 6 7 8 9 10 11 12 13 14 15 16 17
963
FTUS43 KGRR 290907 AAC
TAFMKG
TAF AMD
KMKG 290907Z 2909/3006 06008KT 4SM +RA BR FEW026 BKN070 OVC100
      TEMPO 2909/2910 2SM SHRA BR OVC035
     FM291000 06009KT P6SM VCSH BKN040 BKN100
      TEMPO 2910/2912 4SM SHRA BR OVC035
     FM291500 07009KT P6SM VCSH BKN040 BKN100
     FM300200 07007KT P6SM BKN050=

USA.gov is the U.S. government's official web portal to all federal, state and local government web resources and services.